Time;durP1;ratioP1;P1;durP2;ratioP2;P2;SDS_P1;SDS_P2;PMS_P1;PMS_P2;Temp;Humidity;BMP_temperature;BMP_pressure;BME280_temperature;BME280_humidity;BME280_pressure;Samples;Min_cycle;Max_cycle;Signal;HPM_P1;HPM_P2
2022/06/23 00:01:16;;;;;;;0.70;0.10;;;24.00;1.00;;;;;;5015138;28;20439;-69
2022/06/23 00:03:46;;;;;;;0.70;0.20;;;24.00;1.00;;;;;;5014480;28;20945;-69
2022/06/23 00:06:27;;;;;;;0.70;0.20;;;23.80;1.00;;;;;;5012877;28;20452;-69
2022/06/23 00:08:55;;;;;;;0.70;0.10;;;;;;;;;;5012116;28;20459;-70
2022/06/23 00:11:27;;;;;;;0.70;0.20;;;23.70;1.00;;;;;;5014523;28;20448;-70
2022/06/23 00:14:12;;;;;;;0.70;0.10;;;23.60;1.00;;;;;;5005406;28;20554;-69
2022/06/23 00:16:40;;;;;;;0.70;0.10;;;23.60;1.00;;;;;;4994633;28;20480;-69
2022/06/23 00:19:13;;;;;;;0.70;0.10;;;23.40;1.00;;;;;;4997191;28;20449;-69
2022/06/23 00:21:45;;;;;;;0.70;0.10;;;23.40;1.00;;;;;;5014289;28;20483;-70
2022/06/23 00:24:19;;;;;;;0.70;0.10;;;23.30;1.00;;;;;;5012957;28;20440;-69
2022/06/23 00:26:50;;;;;;;0.70;0.20;;;23.30;1.00;;;;;;5011188;28;20607;-69
2022/06/23 00:29:22;;;;;;;0.70;0.10;;;23.10;1.00;;;;;;5012912;28;20444;-68
2022/06/23 00:31:56;;;;;;;0.70;0.30;;;23.10;1.00;;;;;;4994667;28;20461;-69
2022/06/23 00:34:26;;;;;;;0.70;0.10;;;23.00;1.00;;;;;;4996704;28;20444;-69
2022/06/23 00:36:56;;;;;;;2.20;2.10;;;23.00;1.00;;;;;;5011402;28;20484;-70
2022/06/23 01:13:47;;;;;;;0.70;0.10;;;22.00;1.00;;;;;;4994068;28;20431;-69
2022/06/23 01:16:20;;;;;;;0.70;0.10;;;22.00;1.00;;;;;;5000757;28;20458;-69
2022/06/23 01:18:52;;;;;;;0.70;0.10;;;21.90;1.00;;;;;;5008534;28;20950;-69
2022/06/23 01:21:25;;;;;;;0.70;0.20;;;21.90;1.00;;;;;;5006122;28;20449;-68
2022/06/23 01:24:18;;;;;;;0.70;0.20;;;21.90;1.00;;;;;;5013127;28;20457;-70
2022/06/23 01:27:11;;;;;;;0.70;0.20;;;21.90;1.00;;;;;;4993851;28;20461;-70
2022/06/23 01:29:43;;;;;;;0.70;0.17;;;21.80;1.00;;;;;;5010730;28;20445;-69
2022/06/23 01:32:18;;;;;;;0.70;0.10;;;21.80;1.00;;;;;;5013052;28;20539;-69
2022/06/23 01:34:52;;;;;;;0.70;0.10;;;21.80;1.00;;;;;;5010181;28;20436;-70
2022/06/23 01:37:26;;;;;;;0.70;0.10;;;21.80;1.00;;;;;;5010928;28;20495;-69
2022/06/23 01:40:02;;;;;;;0.70;0.20;;;21.90;1.00;;;;;;4994489;28;20452;-69
2022/06/23 01:42:39;;;;;;;1.70;1.60;;;21.80;1.00;;;;;;5010891;28;20448;-69
2022/06/23 01:45:16;;;;;;;0.70;0.30;;;21.80;1.00;;;;;;5004171;28;20475;-69
2022/06/23 01:47:50;;;;;;;0.70;0.20;;;21.80;1.00;;;;;;4992473;28;20491;-69
2022/06/23 01:50:30;;;;;;;0.70;0.17;;;21.80;1.00;;;;;;4993274;28;20449;-69
2022/06/23 01:53:23;;;;;;;0.70;0.17;;;21.70;1.00;;;;;;4993062;28;20581;-70
2022/06/23 01:56:10;;;;;;;0.70;0.10;;;21.60;1.00;;;;;;4997223;28;20449;-68
2022/06/23 01:58:49;;;;;;;0.70;0.10;;;21.60;1.00;;;;;;5012437;28;21010;-69
2022/06/23 02:01:25;;;;;;;0.70;0.40;;;21.60;1.00;;;;;;5012802;28;20459;-68
2022/06/23 02:04:02;;;;;;;0.70;0.20;;;21.60;1.00;;;;;;5002700;28;20457;-69
2022/06/23 02:06:39;;;;;;;0.70;0.10;;;21.60;1.00;;;;;;5010448;28;20981;-68
2022/06/23 02:09:15;;;;;;;0.70;0.23;;;21.50;1.00;;;;;;5012187;28;20450;-68
2022/06/23 02:11:46;;;;;;;1.13;1.03;;;21.40;1.00;;;;;;5012088;28;20961;-69
2022/06/23 02:14:27;;;;;;;0.93;0.80;;;21.30;1.00;;;;;;5010432;28;20440;-69
2022/06/23 02:17:03;;;;;;;0.70;0.20;;;21.30;1.00;;;;;;5011417;28;20475;-69
2022/06/23 02:19:36;;;;;;;0.70;0.10;;;21.30;1.00;;;;;;5012087;28;20440;-69
2022/06/23 02:22:12;;;;;;;0.70;0.10;;;21.30;1.00;;;;;;5012023;28;20448;-69
2022/06/23 02:24:46;;;;;;;0.70;0.20;;;21.30;1.00;;;;;;5010888;28;20448;-69
2022/06/23 02:27:21;;;;;;;0.70;0.10;;;21.30;1.00;;;;;;5006855;28;20468;-69
2022/06/23 02:29:56;;;;;;;0.70;0.20;;;21.30;1.00;;;;;;4992395;28;20453;-68
2022/06/23 02:32:44;;;;;;;0.70;0.10;;;21.30;1.00;;;;;;4994244;28;20449;-69
2022/06/23 02:35:22;;;;;;;0.70;0.10;;;21.40;1.00;;;;;;5006292;28;20941;-69
2022/06/23 02:38:00;;;;;;;0.70;0.10;;;21.50;1.00;;;;;;4997659;28;20488;-69
2022/06/23 02:40:33;;;;;;;0.70;0.20;;;21.50;1.00;;;;;;5011807;28;20459;-69
2022/06/23 02:43:05;;;;;;;0.70;0.10;;;21.50;1.00;;;;;;5011833;28;20447;-69
2022/06/23 02:45:56;;;;;;;0.70;0.10;;;21.50;1.00;;;;;;5009414;28;20455;-68
2022/06/23 02:48:46;;;;;;;0.70;0.20;;;21.50;1.00;;;;;;5011039;28;20501;-69
2022/06/23 02:51:27;;;;;;;0.70;0.20;;;21.50;1.00;;;;;;5011656;28;20459;-69
2022/06/23 02:54:30;;;;;;;0.70;0.20;;;21.30;1.00;;;;;;5011792;28;20931;-70
2022/06/23 02:57:14;;;;;;;0.70;0.20;;;21.20;1.00;;;;;;4990414;28;20477;-70
2022/06/23 02:59:47;;;;;;;0.70;0.20;;;21.20;1.00;;;;;;4997484;28;20802;-69
2022/06/23 03:02:20;;;;;;;0.70;0.10;;;21.10;1.00;;;;;;5011476;28;20455;-70
2022/06/23 03:04:56;;;;;;;0.70;0.20;;;21.10;1.00;;;;;;5007496;28;20452;-69
2022/06/23 03:07:31;;;;;;;0.70;0.10;;;21.10;1.00;;;;;;4993826;28;20480;-70
2022/06/23 03:10:05;;;;;;;0.67;0.10;;;21.00;1.00;;;;;;4997684;28;20452;-70
2022/06/23 03:12:40;;;;;;;0.70;0.17;;;21.00;1.00;;;;;;5011647;28;20448;-69
2022/06/23 03:15:14;;;;;;;0.70;0.17;;;21.00;1.00;;;;;;5009401;28;20462;-69
2022/06/23 03:17:48;;;;;;;0.70;0.10;;;21.00;1.00;;;;;;5010721;28;20785;-69
2022/06/23 03:20:29;;;;;;;0.70;0.10;;;21.00;1.00;;;;;;5001536;28;20830;-70
2022/06/23 03:23:02;;;;;;;0.70;0.20;;;21.00;1.00;;;;;;4991710;28;20449;-70
2022/06/23 03:25:37;;;;;;;0.70;0.10;;;21.00;1.00;;;;;;5002210;28;20479;-70
2022/06/23 03:28:11;;;;;;;0.70;0.10;;;21.00;1.00;;;;;;4999789;28;20465;-70
2022/06/23 03:30:44;;;;;;;0.70;0.10;;;21.00;1.00;;;;;;4992537;28;20449;-70
2022/06/23 03:33:20;;;;;;;0.70;0.13;;;21.00;1.00;;;;;;4991866;28;20507;-70
2022/06/23 03:35:53;;;;;;;0.60;0.10;;;23.90;1.00;;;;;;5000315;28;20462;-69
2022/06/23 03:41:36;;;;;;;0.70;0.10;;;20.90;1.00;;;;;;5009106;28;20998;-69
2022/06/23 03:41:36;;;;;;;0.70;0.10;;;20.90;1.00;;;;;;4992213;28;20545;-69
2022/06/23 03:44:10;;;;;;;1.37;0.63;;;20.90;1.00;;;;;;4992565;28;20500;-70
2022/06/23 03:46:43;;;;;;;0.63;0.10;;;20.80;1.00;;;;;;5011120;28;20498;-68
2022/06/23 03:49:19;;;;;;;0.70;0.20;;;20.80;1.00;;;;;;5011346;28;20594;-69
2022/06/23 03:51:53;;;;;;;0.70;0.10;;;20.80;1.00;;;;;;4992364;28;20444;-68
2022/06/23 03:54:24;;;;;;;0.70;0.10;;;20.80;1.00;;;;;;4992335;28;20448;-69
2022/06/23 03:56:57;;;;;;;0.70;0.20;;;20.80;1.00;;;;;;4992429;28;20877;-69
2022/06/23 03:59:29;;;;;;;0.70;0.10;;;20.90;1.00;;;;;;5005405;28;20490;-68
2022/06/23 04:02:01;;;;;;;0.70;0.10;;;20.90;1.00;;;;;;5008450;28;20830;-70
2022/06/23 04:04:47;;;;;;;0.67;0.10;;;20.90;1.00;;;;;;5006546;28;20835;-70
2022/06/23 04:07:36;;;;;;;0.63;0.10;;;20.90;1.00;;;;;;4998258;28;20464;-69
2022/06/23 04:10:08;;;;;;;0.70;0.20;;;21.00;1.00;;;;;;5011614;28;20903;-69
2022/06/23 04:13:00;;;;;;;0.70;0.20;;;21.10;1.00;;;;;;5013228;28;20508;-69
2022/06/23 04:15:32;;;;;;;0.70;0.10;;;21.20;1.00;;;;;;5004738;28;20449;-69
2022/06/23 04:18:04;;;;;;;0.70;0.10;;;21.30;1.00;;;;;;4995167;28;20476;-69
2022/06/23 04:20:38;;;;;;;2.80;1.20;;;21.30;1.00;;;;;;5014762;28;20929;-69
2022/06/23 04:23:14;;;;;;;1.00;0.20;;;21.30;1.00;;;;;;5014303;28;20446;-69
2022/06/23 04:25:50;;;;;;;0.70;0.10;;;21.30;1.00;;;;;;5003188;28;20444;-69
2022/06/23 04:28:25;;;;;;;1.40;1.13;;;21.30;1.00;;;;;;5007698;28;20459;-69
2022/06/23 04:30:56;;;;;;;0.70;0.20;;;21.30;1.00;;;;;;5016149;28;20440;-69
2022/06/23 04:33:26;;;;;;;0.70;0.10;;;21.30;1.00;;;;;;5009540;28;20956;-69
2022/06/23 04:35:58;;;;;;;0.70;0.10;;;21.40;1.00;;;;;;5002010;28;20951;-70
2022/06/23 04:38:34;;;;;;;0.70;0.10;;;21.50;1.00;;;;;;5004186;28;20452;-69
2022/06/23 04:41:10;;;;;;;0.70;0.10;;;21.60;1.00;;;;;;5005892;28;20452;-69
2022/06/23 04:43:42;;;;;;;0.70;0.20;;;21.60;1.00;;;;;;5008996;28;20459;-69
2022/06/23 04:46:13;;;;;;;0.70;0.20;;;21.60;1.00;;;;;;4999091;28;20449;-68
2022/06/23 04:48:47;;;;;;;0.70;0.20;;;21.60;1.00;;;;;;5006515;28;20471;-69
2022/06/23 04:51:25;;;;;;;0.70;0.10;;;21.60;1.00;;;;;;5014715;28;20512;-70
2022/06/23 04:54:00;;;;;;;0.70;0.20;;;21.60;1.00;;;;;;5014276;28;20446;-70
2022/06/23 04:56:41;;;;;;;0.70;0.13;;;21.60;1.00;;;;;;4997102;28;20479;-70
2022/06/23 04:59:41;;;;;;;0.70;0.20;;;21.60;1.00;;;;;;4993960;28;20854;-70
2022/06/23 05:02:21;;;;;;;0.70;0.20;;;21.50;1.00;;;;;;4930078;29;20958;-69
2022/06/23 05:04:58;;;;;;;0.70;0.10;;;21.50;1.00;;;;;;4995455;28;20969;-70
2022/06/23 05:07:31;;;;;;;0.70;0.10;;;21.50;1.00;;;;;;4993506;28;20983;-70
2022/06/23 05:10:06;;;;;;;0.70;0.17;;;21.50;1.00;;;;;;5001904;28;20805;-69
2022/06/23 05:12:37;;;;;;;0.70;0.10;;;21.50;1.00;;;;;;4995114;28;20456;-69
2022/06/23 05:15:16;;;;;;;0.70;0.10;;;21.50;1.00;;;;;;4998290;28;20946;-69
2022/06/23 05:17:52;;;;;;;0.70;0.20;;;21.50;1.00;;;;;;5012510;28;20479;-70
2022/06/23 05:20:25;;;;;;;0.70;0.10;;;21.50;1.00;;;;;;5012171;28;20488;-69
2022/06/23 05:22:53;;;;;;;0.70;0.10;;;18.10;1.00;;;;;;5007376;28;20463;-68
2022/06/23 05:25:37;;;;;;;0.90;0.50;;;21.50;1.00;;;;;;5001003;28;20459;-68
2022/06/23 05:28:09;;;;;;;0.70;0.10;;;21.50;1.00;;;;;;5005859;28;20491;-67
2022/06/23 05:30:40;;;;;;;3.83;3.57;;;21.60;1.00;;;;;;5014140;28;20436;-67
2022/06/23 05:33:16;;;;;;;0.70;0.10;;;21.60;1.00;;;;;;5000202;28;20453;-69
2022/06/23 05:35:47;;;;;;;0.70;0.20;;;21.60;1.00;;;;;;5008404;28;20527;-67
2022/06/23 05:38:26;;;;;;;0.70;0.20;;;21.80;1.00;;;;;;5014381;28;20474;-66
2022/06/23 05:40:57;;;;;;;0.70;0.20;;;21.80;1.00;;;;;;5014467;28;20490;-68
2022/06/23 05:43:27;;;;;;;0.70;0.20;;;21.90;1.00;;;;;;5011152;28;20450;-68
2022/06/23 05:45:57;;;;;;;0.70;0.20;;;22.00;1.00;;;;;;4996473;28;20449;-68
2022/06/23 05:48:26;;;;;;;0.70;0.10;;;;;;;;;;5014073;28;20495;-67
2022/06/23 05:50:59;;;;;;;0.70;0.20;;;22.00;1.00;;;;;;5014436;28;20475;-67
2022/06/23 05:53:30;;;;;;;0.70;0.10;;;22.10;1.00;;;;;;5012755;28;20923;-67
2022/06/23 05:56:04;;;;;;;0.70;0.20;;;22.10;1.00;;;;;;5023628;28;20451;-71
2022/06/23 05:58:41;;;;;;;0.70;0.17;;;22.10;1.00;;;;;;4993487;28;20443;-67
2022/06/23 06:01:14;;;;;;;0.90;0.67;;;22.20;1.00;;;;;;4993808;28;20485;-68
2022/06/23 06:03:48;;;;;;;1.20;0.50;;;22.20;1.00;;;;;;4998886;28;20962;-68
2022/06/23 06:06:16;;;;;;;0.70;0.20;;;22.20;1.00;;;;;;4993782;28;20453;-66
2022/06/23 06:11:38;;;;;;;0.70;0.10;;;22.30;1.00;;;;;;5001926;28;20456;-68
2022/06/23 06:14:14;;;;;;;0.70;0.20;;;22.40;1.00;;;;;;4993534;28;20457;-67
2022/06/23 06:16:42;;;;;;;0.70;0.20;;;22.30;1.00;;;;;;5002721;28;20487;-68
2022/06/23 06:19:14;;;;;;;0.70;0.20;;;22.40;1.00;;;;;;4992619;28;20492;-68
2022/06/23 06:21:42;;;;;;;0.70;0.20;;;22.40;1.00;;;;;;4991785;28;20463;-68
2022/06/23 06:24:18;;;;;;;0.70;0.10;;;22.40;1.00;;;;;;4992488;28;20449;-67
2022/06/23 06:26:51;;;;;;;0.70;0.10;;;22.50;1.00;;;;;;5007419;28;20563;-67
2022/06/23 06:29:22;;;;;;;0.70;0.10;;;22.50;1.00;;;;;;4992748;28;20453;-68
2022/06/23 06:31:56;;;;;;;0.70;0.20;;;22.60;1.00;;;;;;4997527;28;20818;-68
2022/06/23 06:34:31;;;;;;;0.70;0.20;;;22.60;1.00;;;;;;5001739;28;20453;-68
2022/06/23 06:36:59;;;;;;;0.70;0.10;;;22.70;1.00;;;;;;5009274;28;20562;-67
2022/06/23 06:39:31;;;;;;;0.70;0.10;;;22.70;1.00;;;;;;5003084;28;20866;-67
2022/06/23 06:42:04;;;;;;;0.70;0.20;;;22.70;1.00;;;;;;5003118;28;20444;-68
2022/06/23 06:44:34;;;;;;;1.00;0.83;;;22.90;1.00;;;;;;5002670;28;20453;-67
2022/06/23 06:47:02;;;;;;;0.70;0.20;;;22.90;1.00;;;;;;4992169;28;20472;-67
2022/06/23 06:49:32;;;;;;;0.70;0.10;;;22.90;1.00;;;;;;4992346;28;20453;-68
2022/06/23 06:52:00;;;;;;;0.70;0.10;;;23.10;1.00;;;;;;4992247;28;20455;-67
2022/06/23 06:54:40;;;;;;;0.70;0.10;;;23.10;1.00;;;;;;4998886;28;20457;-66
2022/06/23 06:57:14;;;;;;;0.70;0.10;;;23.20;1.00;;;;;;5003123;28;20491;-68
2022/06/23 06:59:52;;;;;;;0.70;0.10;;;23.20;1.00;;;;;;4996063;28;20448;-67
2022/06/23 07:02:23;;;;;;;0.70;0.10;;;23.20;1.00;;;;;;5012897;28;20448;-66
2022/06/23 07:04:55;;;;;;;0.70;0.20;;;23.30;1.00;;;;;;4994973;28;20484;-67
2022/06/23 07:07:30;;;;;;;0.70;0.20;;;23.40;1.00;;;;;;4987858;28;20492;-68
2022/06/23 07:10:06;;;;;;;0.70;0.10;;;23.40;1.00;;;;;;5003657;28;20793;-68
2022/06/23 07:12:43;;;;;;;0.70;0.20;;;23.40;1.00;;;;;;5009308;28;20448;-69
2022/06/23 07:15:20;;;;;;;0.70;0.20;;;23.50;1.00;;;;;;5010905;28;20459;-69
2022/06/23 07:17:55;;;;;;;0.70;0.10;;;23.50;1.00;;;;;;5010782;28;20471;-74
2022/06/23 07:20:29;;;;;;;0.70;0.10;;;23.60;1.00;;;;;;5012599;28;20482;-70
2022/06/23 07:23:03;;;;;;;0.70;0.10;;;23.70;1.00;;;;;;5012349;28;20519;-68
2022/06/23 07:25:35;;;;;;;0.70;0.10;;;23.80;1.00;;;;;;4997143;28;20449;-69
2022/06/23 07:28:10;;;;;;;0.70;0.20;;;23.80;1.00;;;;;;5003996;28;20478;-68
2022/06/23 07:30:43;;;;;;;0.70;0.20;;;23.90;1.00;;;;;;5012512;28;20807;-69
2022/06/23 07:33:16;;;;;;;0.70;0.10;;;23.90;1.00;;;;;;5015247;28;21025;-69
2022/06/23 07:35:49;;;;;;;0.70;0.10;;;23.90;1.00;;;;;;5003990;28;20507;-68
2022/06/23 07:38:22;;;;;;;0.70;0.10;;;24.00;99.90;;;;;;5001167;28;20476;-68
2022/06/23 07:41:00;;;;;;;0.70;0.20;;;24.10;1.00;;;;;;5014020;28;20961;-69
2022/06/23 07:43:38;;;;;;;1.00;0.87;;;24.10;99.90;;;;;;5014275;28;20487;-68
2022/06/23 07:46:07;;;;;;;0.70;0.20;;;;;;;;;;5013766;28;20459;-70
2022/06/23 07:48:36;;;;;;;0.80;0.67;;;24.40;99.90;;;;;;5003166;28;20559;-69
2022/06/23 07:51:06;;;;;;;0.70;0.10;;;;;;;;;;5001326;28;20924;-68
2022/06/23 07:53:37;;;;;;;0.70;0.20;;;24.40;99.90;;;;;;5003151;28;20508;-69
2022/06/23 07:56:08;;;;;;;0.70;0.20;;;24.50;99.90;;;;;;5002889;28;21038;-69
2022/06/23 07:58:42;;;;;;;0.70;0.10;;;24.50;99.90;;;;;;5015087;28;20500;-69
2022/06/23 08:01:17;;;;;;;0.70;0.10;;;24.60;99.90;;;;;;5015788;28;20877;-71
2022/06/23 08:03:55;;;;;;;0.70;0.20;;;24.60;99.90;;;;;;5014686;28;20448;-69
2022/06/23 08:06:24;;;;;;;0.80;0.50;;;24.70;99.90;;;;;;5013747;28;20479;-69
2022/06/23 08:08:57;;;;;;;0.70;0.20;;;24.80;99.90;;;;;;5000463;28;20448;-70
2022/06/23 08:14:36;;;;;;;0.70;0.10;;;25.00;99.90;;;;;;4999818;28;20460;-70
2022/06/23 08:17:08;;;;;;;0.70;0.10;;;25.10;99.90;;;;;;5003582;28;20480;-70
2022/06/23 08:19:41;;;;;;;0.70;0.20;;;25.10;99.90;;;;;;5004977;28;20449;-69
2022/06/23 08:22:13;;;;;;;0.70;0.20;;;25.20;99.90;;;;;;5006943;28;20526;-69
2022/06/23 08:24:44;;;;;;;0.70;0.50;;;25.10;99.90;;;;;;5007485;28;20935;-69
2022/06/23 08:27:28;;;;;;;0.70;0.10;;;25.20;99.90;;;;;;5005284;28;20541;-70
2022/06/23 08:30:02;;;;;;;0.70;0.10;;;25.20;99.90;;;;;;4997643;28;20562;-70
2022/06/23 08:32:31;;;;;;;0.70;0.20;;;25.30;99.90;;;;;;4994587;28;20883;-69
2022/06/23 08:35:03;;;;;;;0.70;0.10;;;25.30;99.90;;;;;;5007655;28;20452;-70
2022/06/23 08:37:36;;;;;;;0.70;0.10;;;25.50;99.90;;;;;;4999107;28;20472;-71
2022/06/23 08:40:21;;;;;;;0.70;0.20;;;25.50;99.90;;;;;;5005621;28;20444;-70
2022/06/23 08:42:56;;;;;;;0.70;0.20;;;25.70;99.90;;;;;;5008496;28;20452;-69
2022/06/23 08:45:33;;;;;;;0.70;0.10;;;25.80;99.90;;;;;;4995835;28;20475;-69
2022/06/23 08:48:13;;;;;;;0.70;0.10;;;25.80;99.90;;;;;;4995166;28;20472;-70
2022/06/23 08:50:47;;;;;;;0.70;0.20;;;25.80;99.90;;;;;;5008377;28;20452;-71
2022/06/23 08:53:24;;;;;;;0.70;0.17;;;25.90;99.90;;;;;;5013748;28;20803;-68
2022/06/23 08:55:59;;;;;;;0.70;0.20;;;26.00;99.90;;;;;;5013874;28;20436;-70
2022/06/23 08:58:38;;;;;;;0.70;0.10;;;26.00;99.90;;;;;;5006345;28;20455;-70
2022/06/23 09:01:13;;;;;;;1.33;1.23;;;26.10;99.90;;;;;;5001164;28;20849;-69
2022/06/23 09:03:50;;;;;;;0.70;0.10;;;26.20;99.90;;;;;;5008491;28;20451;-69
2022/06/23 09:06:29;;;;;;;0.70;0.20;;;26.30;99.90;;;;;;5005467;28;20970;-70
2022/06/23 09:09:10;;;;;;;0.70;0.10;;;26.30;99.90;;;;;;5013810;28;20462;-68
2022/06/23 09:11:49;;;;;;;1.30;1.20;;;26.30;99.90;;;;;;5006513;28;20444;-70
2022/06/23 09:14:39;;;;;;;0.70;0.10;;;26.30;99.90;;;;;;5003878;28;20460;-69
2022/06/23 09:17:26;;;;;;;0.70;0.17;;;26.40;99.90;;;;;;4995065;28;20492;-69
2022/06/23 09:20:09;;;;;;;0.70;0.20;;;26.50;99.90;;;;;;4995545;28;20460;-70
2022/06/23 09:23:03;;;;;;;4.10;1.17;;;26.60;99.90;;;;;;4994815;28;20476;-69
2022/06/23 09:25:42;;;;;;;1.00;0.47;;;26.50;99.90;;;;;;4994137;28;20453;-70
2022/06/23 09:28:17;;;;;;;0.70;0.10;;;26.60;99.90;;;;;;5004558;28;20475;-69
2022/06/23 09:30:57;;;;;;;1.20;0.93;;;26.60;99.90;;;;;;5011208;28;20818;-70
2022/06/23 09:33:37;;;;;;;0.70;0.20;;;26.70;99.90;;;;;;5008698;28;20946;-70
2022/06/23 09:36:40;;;;;;;0.70;0.17;;;26.90;99.90;;;;;;5013150;28;21090;-70
2022/06/23 09:39:35;;;;;;;0.70;0.10;;;27.00;99.90;;;;;;4996041;28;20455;-71
2022/06/23 09:42:23;;;;;;;0.70;0.20;;;27.00;99.90;;;;;;5004423;28;20481;-71
2022/06/23 09:45:05;;;;;;;0.70;0.10;;;27.20;99.90;;;;;;4992815;28;20568;-71
2022/06/23 09:48:17;;;;;;;0.70;0.20;;;27.20;99.90;;;;;;5006035;28;20496;-70
2022/06/23 09:51:06;;;;;;;0.70;0.30;;;27.20;99.90;;;;;;5011165;28;20440;-70
2022/06/23 09:53:57;;;;;;;0.70;0.10;;;27.20;99.90;;;;;;4996745;28;20460;-71
2022/06/23 09:56:47;;;;;;;0.70;0.10;;;27.30;99.90;;;;;;5005855;28;20836;-70
2022/06/23 09:59:53;;;;;;;0.87;0.20;;;27.40;99.90;;;;;;4995752;28;20453;-68
2022/06/23 10:02:47;;;;;;;0.70;0.20;;;27.60;99.90;;;;;;4971282;28;21022;-68
2022/06/23 10:05:39;;;;;;;0.70;0.20;;;27.60;99.90;;;;;;5006816;28;20453;-69
2022/06/23 10:08:28;;;;;;;0.70;0.10;;;27.80;99.90;;;;;;4998102;28;20470;-69
2022/06/23 10:11:13;;;;;;;0.70;0.10;;;28.00;99.90;;;;;;5011081;28;20444;-70
2022/06/23 10:14:00;;;;;;;0.70;0.10;;;28.00;99.90;;;;;;5010304;28;20436;-69
2022/06/23 10:16:50;;;;;;;0.70;0.13;;;28.10;99.90;;;;;;5006003;28;20461;-70
2022/06/23 10:19:40;;;;;;;0.70;0.20;;;28.20;99.90;;;;;;5004513;28;20453;-69
2022/06/23 10:22:24;;;;;;;0.70;0.20;;;28.20;99.90;;;;;;4999583;28;20473;-68
2022/06/23 10:25:16;;;;;;;0.70;0.17;;;28.20;99.90;;;;;;5000898;28;20445;-68
2022/06/23 10:27:58;;;;;;;0.70;0.20;;;28.30;99.90;;;;;;5000650;28;20484;-68
2022/06/23 10:30:35;;;;;;;0.70;0.20;;;28.30;99.90;;;;;;5011436;28;20456;-70
2022/06/23 10:33:28;;;;;;;0.70;0.20;;;28.40;99.90;;;;;;5004671;28;20527;-67
2022/06/23 10:36:23;;;;;;;0.70;0.20;;;28.50;99.90;;;;;;4997161;28;20477;-69
2022/06/23 10:38:59;;;;;;;0.70;0.20;;;28.50;99.90;;;;;;4989201;28;20464;-68
2022/06/23 10:41:53;;;;;;;0.70;0.20;;;28.70;99.90;;;;;;5005685;28;20456;-69
2022/06/23 10:44:47;;;;;;;0.70;0.10;;;29.00;99.90;;;;;;5011784;28;20736;-71
2022/06/23 10:47:30;;;;;;;0.70;0.30;;;29.10;99.90;;;;;;4979569;28;20469;-70
2022/06/23 10:50:26;;;;;;;0.70;0.10;;;29.10;99.90;;;;;;5001753;28;20558;-71
2022/06/23 10:53:43;;;;;;;0.70;0.20;;;29.20;99.90;;;;;;4986482;28;20495;-68
2022/06/23 10:56:32;;;;;;;1.10;0.63;;;29.30;99.90;;;;;;4966614;28;20453;-69
2022/06/23 10:59:13;;;;;;;0.70;0.20;;;29.30;99.90;;;;;;5006706;28;20451;-69
2022/06/23 11:02:00;;;;;;;0.80;0.30;;;29.60;99.90;;;;;;5003167;28;20480;-70
2022/06/23 11:04:46;;;;;;;0.70;0.10;;;29.70;99.90;;;;;;4999148;28;20980;-68
2022/06/23 11:07:30;;;;;;;0.70;0.10;;;29.80;99.90;;;;;;5002064;28;20588;-69
2022/06/23 11:10:12;;;;;;;0.70;0.20;;;30.00;99.90;;;;;;5006690;28;20950;-69
2022/06/23 11:12:53;;;;;;;0.70;0.20;;;29.90;99.90;;;;;;4991953;28;20446;-69
2022/06/23 11:15:30;;;;;;;3.00;1.00;;;29.80;99.90;;;;;;4992956;28;20636;-68
2022/06/23 11:18:17;;;;;;;0.70;0.10;;;29.90;99.90;;;;;;4991450;28;20496;-69
2022/06/23 11:20:59;;;;;;;0.70;0.10;;;30.00;99.90;;;;;;4992802;28;20459;-69
2022/06/23 11:23:35;;;;;;;0.70;0.10;;;30.00;99.90;;;;;;4992446;28;20480;-69
2022/06/23 11:26:14;;;;;;;0.70;0.27;;;30.20;99.90;;;;;;4997695;28;20448;-69
2022/06/23 11:28:58;;;;;;;0.70;0.10;;;30.20;99.90;;;;;;5008874;28;20459;-69
2022/06/23 11:31:39;;;;;;;0.70;0.20;;;30.20;99.90;;;;;;5003141;28;20580;-68
2022/06/23 11:34:31;;;;;;;0.70;0.10;;;30.00;99.90;;;;;;5002451;28;20469;-69
2022/06/23 11:37:12;;;;;;;1.23;0.77;;;29.90;99.90;;;;;;5008104;28;20468;-69
2022/06/23 11:39:53;;;;;;;0.70;0.10;;;29.90;99.90;;;;;;5010808;28;20450;-69
2022/06/23 11:42:44;;;;;;;0.70;0.10;;;29.80;99.90;;;;;;5010171;28;20498;-69
2022/06/23 11:45:29;;;;;;;0.70;0.10;;;29.90;99.90;;;;;;5010481;28;20463;-69
2022/06/23 11:48:09;;;;;;;0.70;0.10;;;29.90;99.90;;;;;;5011554;28;20566;-68
2022/06/23 11:50:44;;;;;;;0.70;0.20;;;30.00;99.90;;;;;;5000936;28;20459;-68
2022/06/23 11:53:48;;;;;;;0.70;0.10;;;30.10;99.90;;;;;;4992959;28;21059;-70
2022/06/23 11:56:27;;;;;;;1.03;0.20;;;30.30;99.90;;;;;;5001594;28;20456;-69
2022/06/23 11:59:12;;;;;;;1.63;0.87;;;30.20;99.90;;;;;;5010183;28;20977;-69
2022/06/23 12:01:39;;;;;;;0.80;0.37;;;30.20;99.90;;;;;;5003056;28;20824;-69
2022/06/23 12:04:39;;;;;;;0.70;0.10;;;30.10;99.90;;;;;;4992012;28;20488;-69
2022/06/23 12:07:15;;;;;;;0.70;0.10;;;;;;;;;;4966110;28;20491;-70
2022/06/23 12:09:52;;;;;;;0.70;0.20;;;30.00;99.90;;;;;;4992013;28;20444;-71
2022/06/23 12:12:21;;;;;;;0.70;0.30;;;30.00;99.90;;;;;;5001019;28;20443;-70
2022/06/23 12:14:50;;;;;;;0.70;0.20;;;30.00;99.90;;;;;;5010752;28;20456;-69
2022/06/23 12:17:21;;;;;;;0.70;0.10;;;30.00;99.90;;;;;;5010730;28;20974;-69
2022/06/23 12:19:54;;;;;;;0.70;0.10;;;30.00;99.90;;;;;;5013271;28;20444;-69
2022/06/23 12:22:26;;;;;;;0.70;0.20;;;30.20;99.90;;;;;;5013608;28;20635;-69
2022/06/23 12:25:04;;;;;;;0.70;0.20;;;30.20;99.90;;;;;;5000736;28;20445;-69
2022/06/23 12:27:37;;;;;;;0.90;0.70;;;30.50;99.90;;;;;;5001611;28;20470;-70
2022/06/23 12:30:09;;;;;;;0.70;0.10;;;30.70;99.90;;;;;;5004964;28;20470;-69
2022/06/23 12:32:44;;;;;;;0.70;0.10;;;31.00;99.90;;;;;;5006939;28;20445;-70
2022/06/23 12:35:23;;;;;;;0.80;0.60;;;31.00;99.90;;;;;;5008659;28;20531;-70
2022/06/23 12:37:59;;;;;;;0.70;0.20;;;31.30;99.90;;;;;;5002704;28;20464;-69
2022/06/23 12:40:33;;;;;;;0.70;0.10;;;31.30;99.90;;;;;;5010898;28;20965;-68
2022/06/23 12:43:07;;;;;;;0.70;0.10;;;31.40;99.90;;;;;;4999374;28;20475;-69
2022/06/23 12:45:52;;;;;;;0.70;0.10;;;33.20;99.90;;;;;;4996113;28;20456;-69
2022/06/23 12:48:48;;;;;;;0.80;0.30;;;31.60;99.90;;;;;;4994307;28;20476;-68
2022/06/23 12:51:26;;;;;;;0.80;0.30;;;31.50;99.90;;;;;;4993133;28;20455;-70
2022/06/23 12:54:15;;;;;;;0.80;0.30;;;31.60;99.90;;;;;;5006164;28;20445;-70
2022/06/23 12:56:59;;;;;;;0.70;0.20;;;31.60;99.90;;;;;;5007516;28;20476;-68
2022/06/23 12:59:33;;;;;;;0.70;0.20;;;31.60;99.90;;;;;;5007540;28;20433;-69
2022/06/23 13:02:12;;;;;;;0.70;0.10;;;31.60;99.90;;;;;;5013644;28;20443;-70
2022/06/23 13:04:46;;;;;;;0.70;0.10;;;31.60;99.90;;;;;;5002397;28;20559;-69
2022/06/23 13:07:22;;;;;;;0.70;0.10;;;31.50;99.90;;;;;;5002486;28;21045;-70
2022/06/23 13:09:57;;;;;;;0.70;0.10;;;31.40;99.90;;;;;;5013689;28;20448;-71
2022/06/23 13:12:47;;;;;;;0.70;0.10;;;31.40;99.90;;;;;;4998215;28;20449;-70
2022/06/23 13:15:23;;;;;;;0.70;0.10;;;30.90;99.90;;;;;;5001929;28;20456;-71
2022/06/23 13:17:57;;;;;;;0.70;0.30;;;31.40;99.90;;;;;;5006906;28;20464;-70
2022/06/23 13:20:31;;;;;;;0.70;0.10;;;31.50;99.90;;;;;;5013187;28;20448;-70
2022/06/23 13:23:05;;;;;;;0.70;0.30;;;31.50;99.90;;;;;;5012967;28;20523;-71
2022/06/23 13:25:46;;;;;;;0.70;0.20;;;31.70;99.90;;;;;;5002167;28;20456;-72
2022/06/23 13:28:30;;;;;;;1.00;0.50;;;31.70;99.90;;;;;;5006919;28;21019;-70
2022/06/23 13:31:08;;;;;;;0.70;0.20;;;31.90;99.90;;;;;;4997483;28;20460;-69
2022/06/23 13:33:45;;;;;;;0.70;0.10;;;31.90;99.90;;;;;;5008950;28;20448;-70
2022/06/23 13:36:24;;;;;;;0.70;0.20;;;32.20;99.90;;;;;;5004794;28;20458;-70
2022/06/23 13:39:06;;;;;;;0.70;0.10;;;32.30;99.90;;;;;;4993244;28;20452;-71
2022/06/23 13:41:38;;;;;;;0.70;0.20;;;32.50;99.90;;;;;;4999624;28;20444;-71
2022/06/23 13:44:13;;;;;;;0.70;0.20;;;32.40;99.90;;;;;;5007012;28;20477;-70
2022/06/23 13:46:48;;;;;;;0.70;0.20;;;32.50;99.90;;;;;;5002892;28;20465;-70
2022/06/23 13:49:24;;;;;;;0.80;0.50;;;32.50;99.90;;;;;;4994094;28;20527;-69
2022/06/23 13:51:58;;;;;;;0.70;0.10;;;32.60;99.90;;;;;;5003682;28;20535;-70
2022/06/23 13:54:33;;;;;;;0.70;0.10;;;32.70;99.90;;;;;;5000202;28;20455;-70
2022/06/23 13:57:11;;;;;;;0.70;0.20;;;32.70;99.90;;;;;;4999536;28;20495;-70
2022/06/23 13:59:46;;;;;;;0.70;0.20;;;32.60;99.90;;;;;;4992970;28;20463;-70
2022/06/23 14:02:34;;;;;;;0.70;0.10;;;32.40;99.90;;;;;;5012213;28;20448;-70
2022/06/23 14:05:11;;;;;;;0.70;0.10;;;32.30;99.90;;;;;;5005556;28;20507;-70
2022/06/23 14:07:46;;;;;;;0.70;0.20;;;32.10;99.90;;;;;;5012222;28;20471;-69
2022/06/23 14:10:29;;;;;;;0.70;0.10;;;32.00;99.90;;;;;;5008727;28;20467;-69
2022/06/23 14:13:02;;;;;;;0.70;0.20;;;32.00;99.90;;;;;;5009954;28;20958;-70
2022/06/23 14:15:40;;;;;;;0.70;0.20;;;31.80;99.90;;;;;;5005509;28;20449;-69
2022/06/23 14:18:16;;;;;;;0.70;0.10;;;31.60;99.90;;;;;;5012127;28;20479;-68
2022/06/23 14:20:48;;;;;;;0.70;0.20;;;32.20;99.90;;;;;;5010112;28;20451;-70
2022/06/23 14:23:23;;;;;;;0.70;0.10;;;32.00;99.90;;;;;;5003693;28;20459;-69
2022/06/23 14:26:00;;;;;;;0.70;0.10;;;32.10;99.90;;;;;;5011963;28;20443;-71
2022/06/23 14:28:32;;;;;;;0.70;0.20;;;32.10;99.90;;;;;;5006553;28;20448;-70